Terminal Aerodrome Forecast
Issued by NWS

Home | Current Version | Previous Version | Text Only | Print | Product List | Glossary Off
Versions: 1 2 3 4 5 6 7 8 9 10 11 12 13 14 15 16

642
FTUS45 KGGW 152130 AAB
TAFSDY
TAF AMD
KSDY 152130Z 1522/1618 08008KT P6SM SCT200
     FM160700 13008KT P6SM BKN190 WS020/15035KT
     FM161000 14008KT P6SM BKN150=

USA.gov is the U.S. government's official web portal to all federal, state and local government web resources and services.